Terminal Aerodrome Forecast
Issued by NWS

Home | Current Version | Previous Version | Text Only | Print | Product List | Glossary On
Versions: 1 2 3 4 5 6 7 8 9 10 11 12 13 14 15 16 17 18 19
000
FTUS44 KOHX 282300
TAFCKV
TAF
KCKV 282333Z 2900/2924 34010G18KT P6SM BKN080
     FM290100 33005KT P6SM SKC
     FM291500 36009KT P6SM SCT050=

USA.gov is the U.S. government's official web portal to all federal, state and local government web resources and services.